createdAt,value
2019-02-14T00:00:59.926Z,2.47
2019-02-14T00:03:27.361Z,3.33
2019-02-14T00:05:54.963Z,3.05
2019-02-14T00:08:22.401Z,3.05
2019-02-14T00:10:49.817Z,2.85
2019-02-14T00:13:17.154Z,2.98
2019-02-14T00:15:44.480Z,3.33
2019-02-14T00:18:12.254Z,2.75
2019-02-14T00:20:40.107Z,3.20
2019-02-14T00:23:07.634Z,3.15
2019-02-14T00:25:35.057Z,3.00
2019-02-14T00:28:02.476Z,2.30
2019-02-14T00:30:29.902Z,2.95
2019-02-14T00:32:57.527Z,3.22
2019-02-14T00:35:25.475Z,3.60
2019-02-14T00:37:52.949Z,2.30
2019-02-14T00:40:20.510Z,2.98
2019-02-14T00:42:47.836Z,2.90
2019-02-14T00:45:15.262Z,2.47
2019-02-14T00:47:42.646Z,2.60
2019-02-14T00:50:10.306Z,2.80
2019-02-14T00:52:37.783Z,3.15
2019-02-14T00:55:05.670Z,2.72
2019-02-14T00:57:33.096Z,2.60
2019-02-14T01:00:00.554Z,2.52
2019-02-14T01:02:28.111Z,2.62
2019-02-14T01:04:55.857Z,2.25
2019-02-14T01:07:23.318Z,2.02
2019-02-14T01:09:50.716Z,2.58
2019-02-14T01:12:18.271Z,2.47
2019-02-14T01:14:45.634Z,4.17
2019-02-14T01:17:13.289Z,4.53
2019-02-14T01:19:40.875Z,3.45
2019-02-14T01:22:08.303Z,2.92
2019-02-14T01:24:35.728Z,2.58
2019-02-14T01:27:03.195Z,2.42
2019-02-14T01:29:30.642Z,2.40
2019-02-14T01:31:58.351Z,2.27
2019-02-14T01:34:25.906Z,2.15
2019-02-14T01:36:53.538Z,1.98
2019-02-14T01:39:20.885Z,2.08
2019-02-14T01:41:48.378Z,2.62
2019-02-14T01:44:15.831Z,2.33
2019-02-14T01:46:43.379Z,1.90
2019-02-14T01:49:10.861Z,2.20
2019-02-14T01:51:38.799Z,1.98
2019-02-14T01:54:06.188Z,2.60
2019-02-14T01:56:33.613Z,2.60
2019-02-14T01:59:01.035Z,1.85
2019-02-14T02:01:28.568Z,1.95
2019-02-14T02:03:56.707Z,2.12
2019-02-14T02:06:24.128Z,1.85
2019-02-14T02:08:51.839Z,2.17
2019-02-14T02:11:19.209Z,2.02
2019-02-14T02:13:46.663Z,3.60
2019-02-14T02:16:14.199Z,8.73
2019-02-14T02:18:41.746Z,9.30
2019-02-14T02:21:09.221Z,6.95
2019-02-14T02:23:36.640Z,5.65
2019-02-14T02:26:04.116Z,6.85
2019-02-14T02:28:31.822Z,7.62
2019-02-14T02:30:59.546Z,5.70
2019-02-14T02:33:27.064Z,4.17
2019-02-14T02:36:00.406Z,3.15
2019-02-14T02:38:24.255Z,3.35
2019-02-14T02:40:51.715Z,2.90
2019-02-14T02:43:19.263Z,2.75
2019-02-14T02:45:46.993Z,2.42
2019-02-14T02:48:14.448Z,2.35
2019-02-14T02:50:42.614Z,2.72
2019-02-14T02:53:10.104Z,2.47
2019-02-14T02:55:37.828Z,2.33
2019-02-14T02:58:05.286Z,2.37
2019-02-14T03:00:32.744Z,3.02
2019-02-14T03:03:00.094Z,3.25
2019-02-14T03:05:27.862Z,2.10
2019-02-14T03:07:55.579Z,3.15
2019-02-14T03:10:23.079Z,3.00
2019-02-14T03:12:50.740Z,3.62
2019-02-14T03:15:18.203Z,2.12
2019-02-14T03:17:46.169Z,2.50
2019-02-14T03:20:14.013Z,1.98
2019-02-14T03:22:41.380Z,2.37
2019-02-14T03:25:14.054Z,2.45
2019-02-14T03:27:41.491Z,2.67
2019-02-14T03:30:09.484Z,2.65
2019-02-14T03:32:36.894Z,2.62
2019-02-14T03:35:04.445Z,2.12
2019-02-14T03:37:31.859Z,2.37
2019-02-14T03:39:59.461Z,2.67
2019-02-14T03:42:26.774Z,2.52
2019-02-14T03:44:54.310Z,2.80
2019-02-14T03:47:21.776Z,3.25
2019-02-14T03:49:49.465Z,2.22
2019-02-14T03:52:16.826Z,2.55
2019-02-14T03:54:44.282Z,2.80
2019-02-14T03:57:12.233Z,2.40
2019-02-14T03:59:39.638Z,2.40
2019-02-14T04:02:07.076Z,1.75
2019-02-14T04:04:34.785Z,1.82
2019-02-14T04:07:02.210Z,2.22
2019-02-14T04:09:29.669Z,1.98
2019-02-14T04:11:57.119Z,2.27
2019-02-14T04:14:24.566Z,1.82
2019-02-14T04:16:51.917Z,2.12
2019-02-14T04:19:19.876Z,2.37
2019-02-14T04:21:47.594Z,2.17
2019-02-14T04:24:15.175Z,2.12
2019-02-14T04:26:42.951Z,2.35
2019-02-14T04:29:10.370Z,2.42
2019-02-14T04:31:37.790Z,2.87
2019-02-14T04:34:05.512Z,2.95
2019-02-14T04:36:36.090Z,2.70
2019-02-14T04:39:02.540Z,2.35
2019-02-14T04:41:29.964Z,3.00
2019-02-14T04:43:57.450Z,2.40
2019-02-14T04:46:25.156Z,2.75
2019-02-14T04:48:52.549Z,2.40
2019-02-14T04:51:20.282Z,2.70
2019-02-14T04:53:47.719Z,2.12
2019-02-14T04:56:15.340Z,1.82
2019-02-14T04:58:43.170Z,1.90
2019-02-14T05:01:10.639Z,1.65
2019-02-14T05:03:38.089Z,1.77
2019-02-14T05:06:05.511Z,1.42
2019-02-14T05:08:32.869Z,2.22
2019-02-14T05:11:00.555Z,1.70
2019-02-14T05:13:28.226Z,2.22
2019-02-14T05:15:55.686Z,1.70
2019-02-14T05:18:23.159Z,1.70
2019-02-14T05:20:50.581Z,1.60
2019-02-14T05:23:18.171Z,1.67
2019-02-14T05:25:45.603Z,1.50
2019-02-14T05:28:12.970Z,1.27
2019-02-14T05:30:40.398Z,1.62
2019-02-14T05:33:07.706Z,1.65
2019-02-14T05:35:35.395Z,1.55
2019-02-14T05:38:02.835Z,2.37
2019-02-14T05:40:30.263Z,2.40
2019-02-14T05:42:57.692Z,2.58
2019-02-14T05:45:25.042Z,2.85
2019-02-14T05:47:52.512Z,2.17
2019-02-14T05:50:19.936Z,3.67
2019-02-14T05:52:47.704Z,2.98
2019-02-14T05:55:15.191Z,2.22
2019-02-14T05:57:42.623Z,2.90
2019-02-14T06:00:11.373Z,2.42
2019-02-14T06:02:39.083Z,2.90
2019-02-14T06:05:06.641Z,9.90
2019-02-14T06:07:34.406Z,8.23
2019-02-14T06:10:01.888Z,8.98
2019-02-14T06:12:29.590Z,4.33
2019-02-14T06:14:57.005Z,10.68
2019-02-14T06:17:24.459Z,7.70
2019-02-14T06:19:51.854Z,4.95
2019-02-14T06:22:19.378Z,3.00
2019-02-14T06:24:46.898Z,3.00
2019-02-14T06:27:15.227Z,2.77
2019-02-14T06:29:43.120Z,2.50
2019-02-14T06:32:11.277Z,2.17
2019-02-14T06:34:39.188Z,2.17
2019-02-14T06:37:09.719Z,2.20
2019-02-14T06:39:36.225Z,1.98
2019-02-14T06:42:03.550Z,1.95
2019-02-14T06:44:31.125Z,1.55
2019-02-14T06:46:58.587Z,1.98
2019-02-14T06:49:26.035Z,1.82
2019-02-14T06:51:53.670Z,2.05
2019-02-14T06:54:21.362Z,1.65
2019-02-14T06:56:48.714Z,1.95
2019-02-14T06:59:16.596Z,2.27
2019-02-14T07:01:44.517Z,1.98
2019-02-14T07:04:11.989Z,6.25
2019-02-14T07:06:39.608Z,17.50
2019-02-14T07:09:07.126Z,15.50
2019-02-14T07:11:34.828Z,7.67
2019-02-14T07:14:02.601Z,4.30
2019-02-14T07:16:30.031Z,4.05
2019-02-14T07:18:57.785Z,3.98
2019-02-14T07:21:25.478Z,4.10
2019-02-14T07:23:52.951Z,3.33
2019-02-14T07:26:20.379Z,2.80
2019-02-14T07:28:47.875Z,2.85
2019-02-14T07:31:15.348Z,2.40
2019-02-14T07:33:42.781Z,2.72
2019-02-14T07:36:10.181Z,2.70
2019-02-14T07:38:37.546Z,2.65
2019-02-14T07:41:05.213Z,2.33
2019-02-14T07:43:32.845Z,3.72
2019-02-14T07:46:00.267Z,3.98
2019-02-14T07:48:28.012Z,3.05
2019-02-14T07:50:55.431Z,2.87
2019-02-14T07:53:23.171Z,5.15
2019-02-14T07:55:50.840Z,6.12
2019-02-14T07:58:18.197Z,5.60
2019-02-14T08:00:45.656Z,6.28
2019-02-14T08:03:13.089Z,4.70
2019-02-14T08:05:40.523Z,5.00
2019-02-14T08:08:08.008Z,5.80
2019-02-14T08:10:35.452Z,5.80
2019-02-14T08:13:03.010Z,8.20
2019-02-14T08:15:30.378Z,8.08
2019-02-14T08:17:57.810Z,6.97
2019-02-14T08:20:25.268Z,5.30
2019-02-14T08:22:52.790Z,4.70
2019-02-14T08:25:20.283Z,4.83
2019-02-14T08:27:47.821Z,4.58
2019-02-14T08:30:15.361Z,3.75
2019-02-14T08:32:42.886Z,4.35
2019-02-14T08:35:10.388Z,3.10
2019-02-14T08:37:44.927Z,4.35
2019-02-14T08:40:09.813Z,3.83
2019-02-14T08:42:37.841Z,3.70
2019-02-14T08:45:06.707Z,3.83
2019-02-14T08:47:34.117Z,5.03
2019-02-14T08:50:01.637Z,4.28
2019-02-14T08:52:29.158Z,4.12
2019-02-14T08:54:56.633Z,3.70
2019-02-14T08:57:24.505Z,3.77
2019-02-14T08:59:52.036Z,4.33
2019-02-14T09:02:19.540Z,5.67
2019-02-14T09:04:47.055Z,6.22
2019-02-14T09:07:14.506Z,5.58
2019-02-14T09:09:41.954Z,6.33
2019-02-14T09:12:09.897Z,7.03
2019-02-14T09:14:37.359Z,6.12
2019-02-14T09:17:05.206Z,6.65
2019-02-14T09:19:33.419Z,7.15
2019-02-14T09:22:01.756Z,7.25
2019-02-14T09:24:29.400Z,7.03
2019-02-14T09:26:57.540Z,6.17
2019-02-14T09:29:25.360Z,5.72
2019-02-14T09:31:52.781Z,8.28
2019-02-14T09:34:20.374Z,6.58
2019-02-14T09:36:47.828Z,5.67
2019-02-14T09:39:15.597Z,5.28
2019-02-14T09:41:43.015Z,4.67
2019-02-14T09:44:10.731Z,5.12
2019-02-14T09:46:38.102Z,5.37
2019-02-14T09:49:05.543Z,5.17
2019-02-14T09:51:33.430Z,4.85
2019-02-14T09:54:00.903Z,5.30
2019-02-14T09:56:29.769Z,5.50
2019-02-14T09:58:59.851Z,6.00
2019-02-14T10:01:27.857Z,5.90
2019-02-14T10:03:55.327Z,6.12
2019-02-14T10:06:23.085Z,4.72
2019-02-14T10:08:50.572Z,6.05
2019-02-14T10:11:18.179Z,5.47
2019-02-14T10:13:45.902Z,5.28
2019-02-14T10:16:13.233Z,5.60
2019-02-14T10:18:40.987Z,6.08
2019-02-14T10:21:08.412Z,5.53
2019-02-14T10:23:35.925Z,6.30
2019-02-14T10:26:03.415Z,6.62
2019-02-14T10:28:31.134Z,6.25
2019-02-14T10:30:58.905Z,6.65
2019-02-14T10:33:26.374Z,7.50
2019-02-14T10:35:53.764Z,6.60
2019-02-14T10:38:22.549Z,6.83
2019-02-14T10:40:50.629Z,6.75
2019-02-14T10:43:18.060Z,6.35
2019-02-14T10:45:45.567Z,7.05
2019-02-14T10:48:13.006Z,7.33
2019-02-14T10:50:40.476Z,7.15
2019-02-14T10:53:07.894Z,6.62
2019-02-14T10:55:35.796Z,7.35
2019-02-14T10:58:03.220Z,6.72
2019-02-14T11:00:31.333Z,6.40
2019-02-14T11:02:59.336Z,7.97
2019-02-14T11:05:27.318Z,8.18
2019-02-14T11:07:54.766Z,7.65
2019-02-14T11:10:22.660Z,7.78
2019-02-14T11:12:50.863Z,7.42
2019-02-14T11:15:19.095Z,7.95
2019-02-14T11:17:48.708Z,8.15
2019-02-14T11:20:18.243Z,8.08
2019-02-14T11:22:49.165Z,7.72
2019-02-14T11:25:20.420Z,7.25
2019-02-14T11:27:47.919Z,6.97
2019-02-14T11:30:15.309Z,8.70
2019-02-14T11:32:42.952Z,8.35
2019-02-14T11:35:10.467Z,9.05
2019-02-14T11:37:38.146Z,7.83
2019-02-14T11:40:06.864Z,7.17
2019-02-14T11:42:34.630Z,8.80
2019-02-14T11:45:02.095Z,9.18
2019-02-14T11:47:29.551Z,9.40
2019-02-14T11:49:57.313Z,8.08
2019-02-14T11:52:24.810Z,7.97
2019-02-14T11:54:52.685Z,8.70
2019-02-14T11:57:20.461Z,8.58
2019-02-14T11:59:47.928Z,9.60
2019-02-14T12:02:15.351Z,9.53
2019-02-14T12:04:42.846Z,8.25
2019-02-14T12:07:10.212Z,8.30
2019-02-14T12:09:38.139Z,9.38
2019-02-14T12:12:05.579Z,8.25
2019-02-14T12:14:33.376Z,8.73
2019-02-14T12:17:00.963Z,8.45
2019-02-14T12:19:28.438Z,8.50
2019-02-14T12:21:56.378Z,8.88
2019-02-14T12:24:23.851Z,8.65
2019-02-14T12:26:52.087Z,8.05
2019-02-14T12:29:19.580Z,7.97
2019-02-14T12:31:47.249Z,8.63
2019-02-14T12:34:14.657Z,8.68
2019-02-14T12:36:42.477Z,8.43
2019-02-14T12:39:11.706Z,7.92
2019-02-14T12:41:39.350Z,9.10
2019-02-14T12:44:06.908Z,9.15
2019-02-14T12:46:38.560Z,9.40
2019-02-14T12:49:06.227Z,9.03
2019-02-14T12:51:34.284Z,9.03
2019-02-14T12:54:02.939Z,8.10
2019-02-14T12:56:30.617Z,8.85
2019-02-14T12:58:59.419Z,9.20
2019-02-14T13:01:26.845Z,8.68
2019-02-14T13:03:54.314Z,8.60
2019-02-14T13:06:22.841Z,8.63
2019-02-14T13:08:50.565Z,8.83
2019-02-14T13:11:18.392Z,8.18
2019-02-14T13:13:50.168Z,7.85
2019-02-14T13:16:15.263Z,7.70
2019-02-14T13:18:42.722Z,8.43
2019-02-14T13:21:10.332Z,8.20
2019-02-14T13:23:38.549Z,8.65
2019-02-14T13:26:06.031Z,9.08
2019-02-14T13:28:33.493Z,9.33
2019-02-14T13:31:01.110Z,10.40
2019-02-14T13:33:28.622Z,7.90
2019-02-14T13:35:56.120Z,7.92
2019-02-14T13:38:23.666Z,7.80
2019-02-14T13:40:51.172Z,8.45
2019-02-14T13:43:18.920Z,8.73
2019-02-14T13:45:46.458Z,7.80
2019-02-14T13:48:13.935Z,7.58
2019-02-14T13:50:41.683Z,8.23
2019-02-14T13:53:09.228Z,8.15
2019-02-14T13:55:37.132Z,7.53
2019-02-14T13:58:04.798Z,7.28
2019-02-14T14:00:32.300Z,7.50
2019-02-14T14:02:59.849Z,7.40
2019-02-14T14:05:27.330Z,7.87
2019-02-14T14:07:54.874Z,7.15
2019-02-14T14:10:22.567Z,7.85
2019-02-14T14:12:50.372Z,6.85
2019-02-14T14:15:18.279Z,7.10
2019-02-14T14:17:45.798Z,6.85
2019-02-14T14:20:13.361Z,7.33
2019-02-14T14:22:40.909Z,7.75
2019-02-14T14:25:08.427Z,6.92
2019-02-14T14:27:35.940Z,8.25
2019-02-14T14:30:04.194Z,6.70
2019-02-14T14:32:32.127Z,6.87
2019-02-14T14:34:59.722Z,6.55
2019-02-14T14:37:27.262Z,6.90
2019-02-14T14:39:54.923Z,6.28
2019-02-14T14:42:40.820Z,7.10
2019-02-14T14:45:10.856Z,6.70
2019-02-14T14:47:38.478Z,6.90
2019-02-14T14:50:06.023Z,6.28
2019-02-14T14:52:33.568Z,7.55
2019-02-14T14:55:01.238Z,6.60
2019-02-14T14:57:28.726Z,6.83
2019-02-14T14:59:59.190Z,8.48
2019-02-14T15:02:26.966Z,7.45
2019-02-14T15:04:54.855Z,7.25
2019-02-14T15:07:24.990Z,6.90
2019-02-14T15:10:33.485Z,6.78
2019-02-14T15:13:01.606Z,8.78
2019-02-14T15:15:29.334Z,8.30
2019-02-14T15:17:56.830Z,8.25
2019-02-14T15:20:33.194Z,7.75
2019-02-14T15:22:59.050Z,8.18
2019-02-14T15:25:26.686Z,9.03
2019-02-14T15:27:54.802Z,8.60
2019-02-14T15:30:22.132Z,9.43
2019-02-14T15:32:49.624Z,8.65
2019-02-14T15:35:18.297Z,7.92
2019-02-14T15:37:47.330Z,7.67
2019-02-14T15:40:17.805Z,7.10
2019-02-14T15:42:45.342Z,7.17
2019-02-14T15:45:13.074Z,7.20
2019-02-14T15:47:40.643Z,7.75
2019-02-14T15:50:08.859Z,7.00
2019-02-14T15:52:36.566Z,7.60
2019-02-14T15:55:04.035Z,7.45
2019-02-14T15:57:31.858Z,8.33
2019-02-14T15:59:59.584Z,7.95
2019-02-14T16:02:28.571Z,6.90
2019-02-14T16:04:56.486Z,7.15
2019-02-14T16:07:23.952Z,6.83
2019-02-14T16:09:51.634Z,6.47
2019-02-14T16:12:20.127Z,6.08
2019-02-14T16:14:49.103Z,6.28
2019-02-14T16:17:16.632Z,6.10
2019-02-14T16:19:44.028Z,6.50
2019-02-14T16:22:11.706Z,7.15
2019-02-14T16:24:41.221Z,5.97
2019-02-14T16:27:08.607Z,7.00
2019-02-14T16:29:36.050Z,6.35
2019-02-14T16:32:03.662Z,6.33
2019-02-14T16:34:31.384Z,6.42
2019-02-14T16:36:58.800Z,5.95
2019-02-14T16:39:26.356Z,6.80
2019-02-14T16:41:53.786Z,6.47
2019-02-14T16:44:21.334Z,5.92
2019-02-14T16:46:49.072Z,6.05
2019-02-14T16:49:16.846Z,6.00
2019-02-14T16:51:44.279Z,5.70
2019-02-14T16:54:12.435Z,5.60
2019-02-14T16:56:39.894Z,5.90
2019-02-14T16:59:07.345Z,6.12
2019-02-14T17:01:34.926Z,6.28
2019-02-14T17:04:02.603Z,6.03
2019-02-14T17:06:30.062Z,5.62
2019-02-14T17:08:57.920Z,6.00
2019-02-14T17:11:25.490Z,5.33
2019-02-14T17:13:53.187Z,5.60
2019-02-14T17:16:20.939Z,5.20
2019-02-14T17:18:48.358Z,5.03
2019-02-14T17:21:16.237Z,5.10
2019-02-14T17:23:43.758Z,4.95
2019-02-14T17:26:11.297Z,4.22
2019-02-14T17:28:39.127Z,3.87
2019-02-14T17:31:06.885Z,4.55
2019-02-14T17:33:34.648Z,3.92
2019-02-14T17:36:02.102Z,4.92
2019-02-14T17:38:29.670Z,4.78
2019-02-14T17:40:57.320Z,5.03
2019-02-14T17:43:25.175Z,4.80
2019-02-14T17:45:52.895Z,4.28
2019-02-14T17:48:20.344Z,4.80
2019-02-14T17:50:47.799Z,4.12
2019-02-14T17:53:15.200Z,4.37
2019-02-14T17:55:43.079Z,4.70
2019-02-14T17:58:11.463Z,4.90
2019-02-14T18:00:40.604Z,3.92
2019-02-14T18:03:08.202Z,4.50
2019-02-14T18:05:36.175Z,5.58
2019-02-14T18:08:03.625Z,5.12
2019-02-14T18:10:31.299Z,5.70
2019-02-14T18:12:58.862Z,6.30
2019-02-14T18:15:26.361Z,4.90
2019-02-14T18:17:54.299Z,6.55
2019-02-14T18:20:22.358Z,5.67
2019-02-14T18:22:50.192Z,5.87
2019-02-14T18:25:17.812Z,5.78
2019-02-14T18:27:45.412Z,5.67
2019-02-14T18:30:13.283Z,6.12
2019-02-14T18:32:41.059Z,6.05
2019-02-14T18:35:09.502Z,5.22
2019-02-14T18:37:37.216Z,5.35
2019-02-14T18:40:05.677Z,5.45
2019-02-14T18:42:50.397Z,5.55
2019-02-14T18:45:20.624Z,5.45
2019-02-14T18:47:48.624Z,5.80
2019-02-14T18:50:16.257Z,5.37
2019-02-14T18:52:55.285Z,5.55
2019-02-14T18:55:23.398Z,5.70
2019-02-14T18:57:50.937Z,6.35
2019-02-14T19:00:18.457Z,6.40
2019-02-14T19:02:46.399Z,6.92
2019-02-14T19:05:14.219Z,5.22
2019-02-14T19:07:41.596Z,6.55
2019-02-14T19:10:10.631Z,6.17
2019-02-14T19:12:38.024Z,5.75
2019-02-14T19:15:06.742Z,6.20
2019-02-14T19:17:34.105Z,5.90
2019-02-14T19:20:01.831Z,5.90
2019-02-14T19:22:29.420Z,6.05
2019-02-14T19:24:57.169Z,5.83
2019-02-14T19:27:24.648Z,5.60
2019-02-14T19:29:52.416Z,6.00
2019-02-14T19:32:19.917Z,7.00
2019-02-14T19:34:47.489Z,5.65
2019-02-14T19:37:15.515Z,6.28
2019-02-14T19:39:43.320Z,5.72
2019-02-14T19:42:11.277Z,6.30
2019-02-14T19:44:38.677Z,6.35
2019-02-14T19:47:06.155Z,6.17
2019-02-14T19:49:35.626Z,6.00
2019-02-14T19:52:03.368Z,6.72
2019-02-14T19:54:30.837Z,6.33
2019-02-14T19:56:58.307Z,6.25
2019-02-14T19:59:29.186Z,6.20
2019-02-14T20:01:56.617Z,6.37
2019-02-14T20:04:24.272Z,6.70
2019-02-14T20:06:51.699Z,5.97
2019-02-14T20:09:19.238Z,6.47
2019-02-14T20:11:46.698Z,6.40
2019-02-14T20:14:14.142Z,6.03
2019-02-14T20:16:41.599Z,6.20
2019-02-14T20:19:09.399Z,5.53
2019-02-14T20:21:36.885Z,5.67
2019-02-14T20:24:04.351Z,6.30
2019-02-14T20:26:31.672Z,6.55
2019-02-14T20:28:59.044Z,5.75
2019-02-14T20:31:26.518Z,6.45
2019-02-14T20:33:54.065Z,6.17
2019-02-14T20:36:21.577Z,7.08
2019-02-14T20:41:46.393Z,5.45
2019-02-14T20:44:14.177Z,6.08
2019-02-14T20:46:41.646Z,5.85
2019-02-14T20:49:09.145Z,4.83
2019-02-14T20:51:38.694Z,6.67
2019-02-14T20:54:05.870Z,6.50
2019-02-14T20:56:33.405Z,6.80
2019-02-14T20:59:00.970Z,5.62
2019-02-14T21:01:28.421Z,5.83
2019-02-14T21:03:56.378Z,6.80
2019-02-14T21:14:32.486Z,5.42
2019-02-14T21:17:01.463Z,5.65
2019-02-14T21:19:30.117Z,6.12
2019-02-14T21:22:01.602Z,6.33
2019-02-14T21:24:26.784Z,5.97
2019-02-14T21:26:54.257Z,5.85
2019-02-14T21:29:21.703Z,6.22
2019-02-14T21:31:50.428Z,5.92
2019-02-14T21:34:19.317Z,6.05
2019-02-14T21:36:48.281Z,6.00
2019-02-14T21:39:15.821Z,5.10
2019-02-14T21:41:43.302Z,4.85
2019-02-14T21:44:10.772Z,5.62
2019-02-14T21:46:38.245Z,6.22
2019-02-14T21:49:06.058Z,6.55
2019-02-14T21:51:33.804Z,5.83
2019-02-14T21:54:01.898Z,5.95
2019-02-14T21:56:29.423Z,6.62
2019-02-14T21:58:56.901Z,7.05
2019-02-14T22:01:26.550Z,6.05
2019-02-14T22:03:53.978Z,5.97
2019-02-14T22:06:21.451Z,5.87
2019-02-14T22:08:48.939Z,6.10
2019-02-14T22:11:17.525Z,6.78
2019-02-14T22:13:45.256Z,5.67
2019-02-14T22:16:12.742Z,6.00
2019-02-14T22:18:40.480Z,5.75
2019-02-14T22:21:08.203Z,6.62
2019-02-14T22:23:35.690Z,6.33
2019-02-14T22:26:03.154Z,6.83
2019-02-14T22:28:30.582Z,5.17
2019-02-14T22:30:58.042Z,6.42
2019-02-14T22:33:25.597Z,6.00
2019-02-14T22:35:52.997Z,6.90
2019-02-14T22:38:20.602Z,6.10
2019-02-14T22:40:48.026Z,5.60
2019-02-14T22:43:15.435Z,5.75
2019-02-14T22:45:43.059Z,7.05
2019-02-14T22:48:10.655Z,6.47
2019-02-14T22:50:38.711Z,6.55
2019-02-14T22:53:07.363Z,6.62
2019-02-14T22:55:34.819Z,5.90
2019-02-14T22:58:02.912Z,6.10
2019-02-14T23:00:37.659Z,6.72
2019-02-14T23:03:05.373Z,6.05
2019-02-14T23:05:32.773Z,6.85
2019-02-14T23:08:00.426Z,6.40
2019-02-14T23:10:28.194Z,6.70
2019-02-14T23:12:56.290Z,6.17
2019-02-14T23:15:23.837Z,6.78
2019-02-14T23:17:51.315Z,6.42
2019-02-14T23:20:18.890Z,6.70
2019-02-14T23:22:46.342Z,6.50
2019-02-14T23:25:14.140Z,6.28
2019-02-14T23:27:41.768Z,6.30
2019-02-14T23:30:09.493Z,6.40
2019-02-14T23:32:37.271Z,6.08
2019-02-14T23:35:04.860Z,6.05
2019-02-14T23:37:32.390Z,5.42
2019-02-14T23:40:00.276Z,5.50
2019-02-14T23:42:27.608Z,5.90
2019-02-14T23:44:55.303Z,7.03
2019-02-14T23:47:22.903Z,6.75
2019-02-14T23:49:50.360Z,4.95
2019-02-14T23:52:18.192Z,6.37
2019-02-14T23:54:45.602Z,5.30
2019-02-14T23:57:13.047Z,6.12
2019-02-14T23:59:40.670Z,6.53
